sensor_id;sensor_type;location;lat;lon;timestamp;P1;durP1;ratioP1;P2;durP2;ratioP2
49460;SDS011;35355;49.198;-0.368;2024-01-11T00:01:11;31.05;;;12.77;;
49460;SDS011;35355;49.198;-0.368;2024-01-11T00:03:37;27.98;;;12.93;;
49460;SDS011;35355;49.198;-0.368;2024-01-11T00:06:02;25.05;;;13.05;;
49460;SDS011;35355;49.198;-0.368;2024-01-11T00:08:29;28.05;;;12.27;;
49460;SDS011;35355;49.198;-0.368;2024-01-11T00:10:55;26.13;;;12.20;;
49460;SDS011;35355;49.198;-0.368;2024-01-11T00:13:23;31.92;;;12.40;;
49460;SDS011;35355;49.198;-0.368;2024-01-11T00:15:49;27.60;;;12.07;;
49460;SDS011;35355;49.198;-0.368;2024-01-11T00:18:15;27.25;;;13.02;;
49460;SDS011;35355;49.198;-0.368;2024-01-11T00:20:40;30.33;;;12.93;;
49460;SDS011;35355;49.198;-0.368;2024-01-11T00:23:13;26.88;;;12.88;;
49460;SDS011;35355;49.198;-0.368;2024-01-11T00:25:39;29.73;;;12.48;;
49460;SDS011;35355;49.198;-0.368;2024-01-11T00:28:04;32.70;;;12.25;;
49460;SDS011;35355;49.198;-0.368;2024-01-11T00:30:30;28.15;;;12.35;;
49460;SDS011;35355;49.198;-0.368;2024-01-11T00:32:56;26.92;;;12.93;;
49460;SDS011;35355;49.198;-0.368;2024-01-11T00:35:21;24.55;;;13.02;;
49460;SDS011;35355;49.198;-0.368;2024-01-11T00:37:52;31.15;;;12.95;;
49460;SDS011;35355;49.198;-0.368;2024-01-11T00:40:18;29.17;;;12.52;;
49460;SDS011;35355;49.198;-0.368;2024-01-11T00:42:46;26.38;;;11.40;;
49460;SDS011;35355;49.198;-0.368;2024-01-11T00:45:12;30.45;;;12.05;;
49460;SDS011;35355;49.198;-0.368;2024-01-11T00:47:40;26.02;;;12.30;;
49460;SDS011;35355;49.198;-0.368;2024-01-11T00:50:06;23.83;;;12.05;;
49460;SDS011;35355;49.198;-0.368;2024-01-11T00:52:34;30.20;;;12.65;;
49460;SDS011;35355;49.198;-0.368;2024-01-11T00:55:03;26.25;;;10.70;;
49460;SDS011;35355;49.198;-0.368;2024-01-11T00:57:29;28.08;;;12.75;;
49460;SDS011;35355;49.198;-0.368;2024-01-11T00:59:55;28.63;;;12.43;;
49460;SDS011;35355;49.198;-0.368;2024-01-11T01:02:21;26.77;;;12.55;;
49460;SDS011;35355;49.198;-0.368;2024-01-11T01:04:46;27.63;;;12.70;;
49460;SDS011;35355;49.198;-0.368;2024-01-11T01:07:11;26.55;;;12.35;;
49460;SDS011;35355;49.198;-0.368;2024-01-11T01:09:37;29.27;;;12.57;;
49460;SDS011;35355;49.198;-0.368;2024-01-11T01:12:03;24.60;;;12.05;;
49460;SDS011;35355;49.198;-0.368;2024-01-11T01:14:29;28.75;;;13.10;;
49460;SDS011;35355;49.198;-0.368;2024-01-11T01:16:56;27.88;;;12.80;;
49460;SDS011;35355;49.198;-0.368;2024-01-11T01:19:24;30.70;;;14.63;;
49460;SDS011;35355;49.198;-0.368;2024-01-11T01:21:50;26.17;;;12.80;;
49460;SDS011;35355;49.198;-0.368;2024-01-11T01:24:15;27.75;;;13.02;;
49460;SDS011;35355;49.198;-0.368;2024-01-11T01:26:44;28.23;;;12.90;;
49460;SDS011;35355;49.198;-0.368;2024-01-11T01:29:12;27.02;;;12.88;;
49460;SDS011;35355;49.198;-0.368;2024-01-11T01:31:43;28.50;;;12.25;;
49460;SDS011;35355;49.198;-0.368;2024-01-11T01:34:08;34.67;;;13.77;;
49460;SDS011;35355;49.198;-0.368;2024-01-11T01:36:40;33.33;;;14.18;;
49460;SDS011;35355;49.198;-0.368;2024-01-11T01:39:06;26.83;;;12.35;;
49460;SDS011;35355;49.198;-0.368;2024-01-11T01:41:31;26.33;;;12.60;;
49460;SDS011;35355;49.198;-0.368;2024-01-11T01:43:57;29.52;;;12.57;;
49460;SDS011;35355;49.198;-0.368;2024-01-11T01:46:23;29.08;;;12.43;;
49460;SDS011;35355;49.198;-0.368;2024-01-11T01:48:51;27.42;;;11.45;;
49460;SDS011;35355;49.198;-0.368;2024-01-11T01:51:19;26.73;;;13.40;;
49460;SDS011;35355;49.198;-0.368;2024-01-11T01:53:46;28.70;;;13.05;;
49460;SDS011;35355;49.198;-0.368;2024-01-11T01:56:12;24.63;;;11.98;;
49460;SDS011;35355;49.198;-0.368;2024-01-11T01:58:38;27.77;;;12.88;;
49460;SDS011;35355;49.198;-0.368;2024-01-11T02:01:04;26.52;;;12.25;;
49460;SDS011;35355;49.198;-0.368;2024-01-11T02:03:30;35.10;;;14.73;;
49460;SDS011;35355;49.198;-0.368;2024-01-11T02:05:57;24.90;;;12.77;;
49460;SDS011;35355;49.198;-0.368;2024-01-11T02:08:23;25.02;;;11.98;;
49460;SDS011;35355;49.198;-0.368;2024-01-11T02:10:51;29.25;;;13.40;;
49460;SDS011;35355;49.198;-0.368;2024-01-11T02:13:20;30.02;;;13.98;;
49460;SDS011;35355;49.198;-0.368;2024-01-11T02:15:47;30.15;;;13.95;;
49460;SDS011;35355;49.198;-0.368;2024-01-11T02:18:12;29.50;;;11.73;;
49460;SDS011;35355;49.198;-0.368;2024-01-11T02:20:38;27.02;;;12.48;;
49460;SDS011;35355;49.198;-0.368;2024-01-11T02:23:08;25.42;;;11.27;;
49460;SDS011;35355;49.198;-0.368;2024-01-11T02:25:40;26.25;;;11.77;;
49460;SDS011;35355;49.198;-0.368;2024-01-11T02:28:05;28.23;;;12.65;;
49460;SDS011;35355;49.198;-0.368;2024-01-11T02:30:33;27.02;;;12.88;;
49460;SDS011;35355;49.198;-0.368;2024-01-11T02:33:02;32.45;;;12.50;;
49460;SDS011;35355;49.198;-0.368;2024-01-11T02:35:31;31.83;;;12.82;;
49460;SDS011;35355;49.198;-0.368;2024-01-11T02:37:59;28.95;;;12.48;;
49460;SDS011;35355;49.198;-0.368;2024-01-11T02:40:28;25.85;;;11.77;;
49460;SDS011;35355;49.198;-0.368;2024-01-11T02:42:57;25.95;;;12.30;;
49460;SDS011;35355;49.198;-0.368;2024-01-11T02:45:23;28.13;;;13.23;;
49460;SDS011;35355;49.198;-0.368;2024-01-11T02:47:51;30.60;;;14.20;;
49460;SDS011;35355;49.198;-0.368;2024-01-11T02:50:17;26.92;;;13.10;;
49460;SDS011;35355;49.198;-0.368;2024-01-11T02:52:42;29.83;;;13.00;;
49460;SDS011;35355;49.198;-0.368;2024-01-11T02:55:11;30.83;;;13.77;;
49460;SDS011;35355;49.198;-0.368;2024-01-11T02:57:36;30.77;;;13.63;;
49460;SDS011;35355;49.198;-0.368;2024-01-11T03:00:02;29.88;;;13.80;;
49460;SDS011;35355;49.198;-0.368;2024-01-11T03:02:30;27.20;;;13.25;;
49460;SDS011;35355;49.198;-0.368;2024-01-11T03:04:56;28.92;;;13.80;;
49460;SDS011;35355;49.198;-0.368;2024-01-11T03:07:22;29.63;;;13.43;;
49460;SDS011;35355;49.198;-0.368;2024-01-11T03:09:48;27.35;;;13.18;;
49460;SDS011;35355;49.198;-0.368;2024-01-11T03:12:13;24.65;;;12.88;;
49460;SDS011;35355;49.198;-0.368;2024-01-11T03:14:39;29.33;;;14.25;;
49460;SDS011;35355;49.198;-0.368;2024-01-11T03:17:05;27.50;;;12.73;;
49460;SDS011;35355;49.198;-0.368;2024-01-11T03:19:34;31.38;;;14.30;;
49460;SDS011;35355;49.198;-0.368;2024-01-11T03:22:05;30.13;;;13.35;;
49460;SDS011;35355;49.198;-0.368;2024-01-11T03:24:32;28.15;;;13.20;;
49460;SDS011;35355;49.198;-0.368;2024-01-11T03:26:57;28.35;;;13.13;;
49460;SDS011;35355;49.198;-0.368;2024-01-11T03:29:23;51.97;;;13.75;;
49460;SDS011;35355;49.198;-0.368;2024-01-11T03:31:49;27.88;;;13.73;;
49460;SDS011;35355;49.198;-0.368;2024-01-11T03:34:14;27.45;;;13.35;;
49460;SDS011;35355;49.198;-0.368;2024-01-11T03:36:44;27.92;;;13.48;;
49460;SDS011;35355;49.198;-0.368;2024-01-11T03:39:10;29.77;;;13.02;;
49460;SDS011;35355;49.198;-0.368;2024-01-11T03:41:35;29.58;;;13.60;;
49460;SDS011;35355;49.198;-0.368;2024-01-11T03:44:01;29.67;;;14.32;;
49460;SDS011;35355;49.198;-0.368;2024-01-11T03:46:26;31.17;;;13.27;;
49460;SDS011;35355;49.198;-0.368;2024-01-11T03:48:52;26.85;;;12.93;;
49460;SDS011;35355;49.198;-0.368;2024-01-11T03:51:17;27.77;;;13.30;;
49460;SDS011;35355;49.198;-0.368;2024-01-11T03:53:43;26.13;;;13.20;;
49460;SDS011;35355;49.198;-0.368;2024-01-11T03:56:09;30.63;;;14.02;;
49460;SDS011;35355;49.198;-0.368;2024-01-11T03:58:38;24.92;;;13.52;;
49460;SDS011;35355;49.198;-0.368;2024-01-11T04:01:06;27.38;;;12.77;;
49460;SDS011;35355;49.198;-0.368;2024-01-11T04:03:37;26.83;;;12.15;;
49460;SDS011;35355;49.198;-0.368;2024-01-11T04:06:03;27.23;;;12.80;;
49460;SDS011;35355;49.198;-0.368;2024-01-11T04:08:32;33.55;;;14.98;;
49460;SDS011;35355;49.198;-0.368;2024-01-11T04:11:00;26.17;;;12.43;;
49460;SDS011;35355;49.198;-0.368;2024-01-11T04:13:30;28.00;;;11.95;;
49460;SDS011;35355;49.198;-0.368;2024-01-11T04:15:56;26.58;;;13.05;;
49460;SDS011;35355;49.198;-0.368;2024-01-11T04:18:21;30.02;;;14.43;;
49460;SDS011;35355;49.198;-0.368;2024-01-11T04:20:47;29.50;;;13.90;;
49460;SDS011;35355;49.198;-0.368;2024-01-11T04:23:12;26.40;;;12.82;;
49460;SDS011;35355;49.198;-0.368;2024-01-11T04:25:38;31.23;;;14.13;;
49460;SDS011;35355;49.198;-0.368;2024-01-11T04:28:03;24.80;;;12.68;;
49460;SDS011;35355;49.198;-0.368;2024-01-11T04:30:29;31.08;;;13.93;;
49460;SDS011;35355;49.198;-0.368;2024-01-11T04:32:55;29.95;;;13.80;;
49460;SDS011;35355;49.198;-0.368;2024-01-11T04:35:20;28.48;;;12.80;;
49460;SDS011;35355;49.198;-0.368;2024-01-11T04:37:48;30.70;;;14.57;;
49460;SDS011;35355;49.198;-0.368;2024-01-11T04:40:19;28.25;;;13.80;;
49460;SDS011;35355;49.198;-0.368;2024-01-11T04:42:44;31.00;;;14.63;;
49460;SDS011;35355;49.198;-0.368;2024-01-11T04:45:11;26.95;;;14.50;;
49460;SDS011;35355;49.198;-0.368;2024-01-11T04:50:10;27.90;;;13.35;;
49460;SDS011;35355;49.198;-0.368;2024-01-11T04:52:36;29.13;;;13.00;;
49460;SDS011;35355;49.198;-0.368;2024-01-11T04:55:02;35.28;;;14.00;;
49460;SDS011;35355;49.198;-0.368;2024-01-11T04:57:30;31.45;;;13.68;;
49460;SDS011;35355;49.198;-0.368;2024-01-11T04:59:59;28.38;;;12.98;;
49460;SDS011;35355;49.198;-0.368;2024-01-11T05:02:24;29.40;;;13.80;;
49460;SDS011;35355;49.198;-0.368;2024-01-11T05:04:50;32.92;;;14.68;;
49460;SDS011;35355;49.198;-0.368;2024-01-11T05:07:15;29.85;;;13.40;;
49460;SDS011;35355;49.198;-0.368;2024-01-11T05:09:41;29.52;;;14.30;;
49460;SDS011;35355;49.198;-0.368;2024-01-11T05:12:14;30.08;;;14.38;;
49460;SDS011;35355;49.198;-0.368;2024-01-11T05:14:40;32.30;;;14.07;;
49460;SDS011;35355;49.198;-0.368;2024-01-11T05:17:05;29.98;;;14.63;;
49460;SDS011;35355;49.198;-0.368;2024-01-11T05:19:33;29.48;;;14.00;;
49460;SDS011;35355;49.198;-0.368;2024-01-11T05:21:58;34.70;;;15.88;;
49460;SDS011;35355;49.198;-0.368;2024-01-11T05:24:24;31.25;;;14.70;;
49460;SDS011;35355;49.198;-0.368;2024-01-11T05:26:50;31.08;;;13.90;;
49460;SDS011;35355;49.198;-0.368;2024-01-11T05:29:16;29.30;;;14.43;;
49460;SDS011;35355;49.198;-0.368;2024-01-11T05:31:42;34.35;;;14.82;;
49460;SDS011;35355;49.198;-0.368;2024-01-11T05:34:08;34.10;;;12.77;;
49460;SDS011;35355;49.198;-0.368;2024-01-11T05:36:37;31.65;;;13.95;;
49460;SDS011;35355;49.198;-0.368;2024-01-11T05:39:03;32.47;;;15.15;;
49460;SDS011;35355;49.198;-0.368;2024-01-11T05:41:29;32.63;;;14.52;;
49460;SDS011;35355;49.198;-0.368;2024-01-11T05:43:54;29.77;;;14.02;;
49460;SDS011;35355;49.198;-0.368;2024-01-11T05:46:20;30.10;;;14.85;;
49460;SDS011;35355;49.198;-0.368;2024-01-11T05:48:46;27.00;;;13.32;;
49460;SDS011;35355;49.198;-0.368;2024-01-11T05:51:11;29.20;;;14.45;;
49460;SDS011;35355;49.198;-0.368;2024-01-11T05:53:37;32.78;;;15.32;;
49460;SDS011;35355;49.198;-0.368;2024-01-11T05:56:09;31.98;;;15.65;;
49460;SDS011;35355;49.198;-0.368;2024-01-11T05:58:35;33.58;;;15.82;;
49460;SDS011;35355;49.198;-0.368;2024-01-11T06:01:07;29.85;;;14.18;;
49460;SDS011;35355;49.198;-0.368;2024-01-11T06:03:34;28.15;;;13.48;;
49460;SDS011;35355;49.198;-0.368;2024-01-11T06:06:06;35.15;;;15.82;;
49460;SDS011;35355;49.198;-0.368;2024-01-11T06:08:33;34.45;;;14.35;;
49460;SDS011;35355;49.198;-0.368;2024-01-11T06:11:01;33.72;;;16.40;;
49460;SDS011;35355;49.198;-0.368;2024-01-11T06:13:27;31.90;;;16.33;;
49460;SDS011;35355;49.198;-0.368;2024-01-11T06:15:52;33.67;;;16.27;;
49460;SDS011;35355;49.198;-0.368;2024-01-11T06:18:18;32.15;;;16.08;;
49460;SDS011;35355;49.198;-0.368;2024-01-11T06:20:44;29.33;;;14.23;;
49460;SDS011;35355;49.198;-0.368;2024-01-11T06:23:13;33.05;;;15.48;;
49460;SDS011;35355;49.198;-0.368;2024-01-11T06:25:47;34.85;;;15.93;;
49460;SDS011;35355;49.198;-0.368;2024-01-11T06:28:13;37.15;;;15.70;;
49460;SDS011;35355;49.198;-0.368;2024-01-11T06:30:38;31.65;;;15.02;;
49460;SDS011;35355;49.198;-0.368;2024-01-11T06:33:08;32.08;;;14.18;;
49460;SDS011;35355;49.198;-0.368;2024-01-11T06:35:37;32.58;;;15.93;;
49460;SDS011;35355;49.198;-0.368;2024-01-11T06:38:05;29.60;;;15.18;;
49460;SDS011;35355;49.198;-0.368;2024-01-11T06:40:31;30.50;;;14.88;;
49460;SDS011;35355;49.198;-0.368;2024-01-11T06:42:59;33.67;;;15.50;;
49460;SDS011;35355;49.198;-0.368;2024-01-11T06:45:28;30.45;;;14.98;;
49460;SDS011;35355;49.198;-0.368;2024-01-11T06:47:58;32.65;;;14.90;;
49460;SDS011;35355;49.198;-0.368;2024-01-11T06:50:24;33.42;;;15.82;;
49460;SDS011;35355;49.198;-0.368;2024-01-11T06:52:51;36.78;;;15.10;;
49460;SDS011;35355;49.198;-0.368;2024-01-11T06:55:19;28.13;;;13.23;;
49460;SDS011;35355;49.198;-0.368;2024-01-11T06:57:49;31.08;;;15.13;;
49460;SDS011;35355;49.198;-0.368;2024-01-11T07:00:16;31.48;;;14.80;;
49460;SDS011;35355;49.198;-0.368;2024-01-11T07:02:44;29.30;;;14.27;;
49460;SDS011;35355;49.198;-0.368;2024-01-11T07:05:12;35.00;;;15.38;;
49460;SDS011;35355;49.198;-0.368;2024-01-11T07:07:38;33.97;;;15.00;;
49460;SDS011;35355;49.198;-0.368;2024-01-11T07:10:07;35.85;;;15.07;;
49460;SDS011;35355;49.198;-0.368;2024-01-11T07:12:34;32.47;;;14.70;;
49460;SDS011;35355;49.198;-0.368;2024-01-11T07:14:59;37.05;;;14.70;;
49460;SDS011;35355;49.198;-0.368;2024-01-11T07:17:25;32.03;;;14.85;;
49460;SDS011;35355;49.198;-0.368;2024-01-11T07:19:53;34.58;;;16.63;;
49460;SDS011;35355;49.198;-0.368;2024-01-11T07:22:19;30.10;;;15.05;;
49460;SDS011;35355;49.198;-0.368;2024-01-11T07:24:46;28.35;;;14.23;;
49460;SDS011;35355;49.198;-0.368;2024-01-11T07:27:14;36.30;;;15.10;;
49460;SDS011;35355;49.198;-0.368;2024-01-11T07:29:40;31.63;;;15.70;;
49460;SDS011;35355;49.198;-0.368;2024-01-11T07:32:06;33.63;;;15.75;;
49460;SDS011;35355;49.198;-0.368;2024-01-11T07:34:37;29.88;;;14.52;;
49460;SDS011;35355;49.198;-0.368;2024-01-11T07:37:12;32.92;;;14.55;;
49460;SDS011;35355;49.198;-0.368;2024-01-11T07:39:37;36.08;;;15.95;;
49460;SDS011;35355;49.198;-0.368;2024-01-11T07:42:06;33.65;;;16.00;;
49460;SDS011;35355;49.198;-0.368;2024-01-11T07:44:35;33.58;;;15.80;;
49460;SDS011;35355;49.198;-0.368;2024-01-11T07:47:00;36.45;;;16.02;;
49460;SDS011;35355;49.198;-0.368;2024-01-11T07:49:26;32.45;;;15.85;;
49460;SDS011;35355;49.198;-0.368;2024-01-11T07:51:54;32.08;;;14.20;;
49460;SDS011;35355;49.198;-0.368;2024-01-11T07:54:20;34.22;;;15.35;;
49460;SDS011;35355;49.198;-0.368;2024-01-11T07:56:48;30.13;;;14.13;;
49460;SDS011;35355;49.198;-0.368;2024-01-11T07:59:13;32.00;;;14.15;;
49460;SDS011;35355;49.198;-0.368;2024-01-11T08:01:48;29.77;;;13.65;;
49460;SDS011;35355;49.198;-0.368;2024-01-11T08:04:14;29.77;;;13.80;;
49460;SDS011;35355;49.198;-0.368;2024-01-11T08:06:39;30.48;;;14.32;;
49460;SDS011;35355;49.198;-0.368;2024-01-11T08:09:05;33.10;;;14.25;;
49460;SDS011;35355;49.198;-0.368;2024-01-11T08:11:30;31.65;;;14.70;;
49460;SDS011;35355;49.198;-0.368;2024-01-11T08:13:56;30.70;;;13.85;;
49460;SDS011;35355;49.198;-0.368;2024-01-11T08:16:22;32.95;;;15.85;;
49460;SDS011;35355;49.198;-0.368;2024-01-11T08:18:48;30.27;;;13.25;;
49460;SDS011;35355;49.198;-0.368;2024-01-11T08:21:14;27.33;;;13.60;;
49460;SDS011;35355;49.198;-0.368;2024-01-11T08:23:43;54.25;;;20.52;;
49460;SDS011;35355;49.198;-0.368;2024-01-11T08:26:14;36.65;;;16.95;;
49460;SDS011;35355;49.198;-0.368;2024-01-11T08:28:42;33.35;;;15.93;;
49460;SDS011;35355;49.198;-0.368;2024-01-11T08:31:08;31.45;;;14.02;;
49460;SDS011;35355;49.198;-0.368;2024-01-11T08:33:34;27.33;;;13.00;;
49460;SDS011;35355;49.198;-0.368;2024-01-11T08:36:02;26.60;;;12.63;;
49460;SDS011;35355;49.198;-0.368;2024-01-11T08:38:31;33.80;;;16.05;;
49460;SDS011;35355;49.198;-0.368;2024-01-11T08:41:01;37.47;;;18.42;;
49460;SDS011;35355;49.198;-0.368;2024-01-11T08:43:28;31.40;;;15.63;;
49460;SDS011;35355;49.198;-0.368;2024-01-11T08:45:54;34.35;;;16.92;;
49460;SDS011;35355;49.198;-0.368;2024-01-11T08:48:22;25.98;;;13.18;;
49460;SDS011;35355;49.198;-0.368;2024-01-11T08:50:48;25.75;;;14.05;;
49460;SDS011;35355;49.198;-0.368;2024-01-11T08:53:13;35.50;;;14.48;;
49460;SDS011;35355;49.198;-0.368;2024-01-11T08:55:41;25.98;;;12.90;;
49460;SDS011;35355;49.198;-0.368;2024-01-11T08:58:13;29.27;;;13.95;;
49460;SDS011;35355;49.198;-0.368;2024-01-11T09:00:42;36.05;;;14.30;;
49460;SDS011;35355;49.198;-0.368;2024-01-11T09:03:09;27.90;;;13.27;;
49460;SDS011;35355;49.198;-0.368;2024-01-11T09:05:34;33.22;;;13.93;;
49460;SDS011;35355;49.198;-0.368;2024-01-11T09:07:59;30.40;;;13.70;;
49460;SDS011;35355;49.198;-0.368;2024-01-11T09:10:25;30.92;;;16.58;;
49460;SDS011;35355;49.198;-0.368;2024-01-11T09:12:51;27.40;;;11.32;;
49460;SDS011;35355;49.198;-0.368;2024-01-11T09:15:16;25.48;;;12.18;;
49460;SDS011;35355;49.198;-0.368;2024-01-11T09:17:42;29.98;;;15.55;;
49460;SDS011;35355;49.198;-0.368;2024-01-11T09:20:08;27.05;;;12.05;;
49460;SDS011;35355;49.198;-0.368;2024-01-11T09:22:34;24.55;;;11.75;;
49460;SDS011;35355;49.198;-0.368;2024-01-11T09:25:00;19.85;;;10.63;;
49460;SDS011;35355;49.198;-0.368;2024-01-11T09:27:25;25.80;;;11.68;;
49460;SDS011;35355;49.198;-0.368;2024-01-11T09:29:51;22.08;;;10.20;;
49460;SDS011;35355;49.198;-0.368;2024-01-11T09:32:16;24.42;;;11.10;;
49460;SDS011;35355;49.198;-0.368;2024-01-11T09:34:42;20.70;;;10.88;;
49460;SDS011;35355;49.198;-0.368;2024-01-11T09:37:11;20.63;;;9.50;;
49460;SDS011;35355;49.198;-0.368;2024-01-11T09:39:39;23.60;;;10.00;;
49460;SDS011;35355;49.198;-0.368;2024-01-11T09:44:36;22.23;;;11.38;;
49460;SDS011;35355;49.198;-0.368;2024-01-11T09:47:08;20.70;;;10.15;;
49460;SDS011;35355;49.198;-0.368;2024-01-11T09:49:39;24.08;;;11.35;;
49460;SDS011;35355;49.198;-0.368;2024-01-11T09:52:07;26.23;;;10.73;;
49460;SDS011;35355;49.198;-0.368;2024-01-11T09:54:35;20.73;;;10.70;;
49460;SDS011;35355;49.198;-0.368;2024-01-11T09:57:02;19.05;;;9.98;;
49460;SDS011;35355;49.198;-0.368;2024-01-11T09:59:30;23.63;;;11.13;;
49460;SDS011;35355;49.198;-0.368;2024-01-11T10:01:58;21.33;;;10.45;;
49460;SDS011;35355;49.198;-0.368;2024-01-11T10:04:24;23.55;;;11.65;;
49460;SDS011;35355;49.198;-0.368;2024-01-11T10:06:53;18.42;;;10.10;;
49460;SDS011;35355;49.198;-0.368;2024-01-11T10:09:20;21.98;;;10.02;;
49460;SDS011;35355;49.198;-0.368;2024-01-11T10:11:49;21.75;;;10.98;;
49460;SDS011;35355;49.198;-0.368;2024-01-11T10:14:16;24.90;;;10.52;;
49460;SDS011;35355;49.198;-0.368;2024-01-11T10:16:47;17.63;;;8.98;;
49460;SDS011;35355;49.198;-0.368;2024-01-11T10:19:13;24.77;;;11.38;;
49460;SDS011;35355;49.198;-0.368;2024-01-11T10:21:40;21.05;;;10.18;;
49460;SDS011;35355;49.198;-0.368;2024-01-11T10:24:06;19.65;;;10.48;;
49460;SDS011;35355;49.198;-0.368;2024-01-11T10:26:31;22.95;;;10.32;;
49460;SDS011;35355;49.198;-0.368;2024-01-11T10:29:04;21.83;;;11.68;;
49460;SDS011;35355;49.198;-0.368;2024-01-11T10:31:35;21.33;;;11.85;;
49460;SDS011;35355;49.198;-0.368;2024-01-11T10:34:02;22.48;;;11.32;;
49460;SDS011;35355;49.198;-0.368;2024-01-11T10:36:34;22.00;;;11.02;;
49460;SDS011;35355;49.198;-0.368;2024-01-11T10:39:01;23.40;;;10.73;;
49460;SDS011;35355;49.198;-0.368;2024-01-11T10:41:38;29.17;;;12.05;;
49460;SDS011;35355;49.198;-0.368;2024-01-11T10:44:07;20.48;;;10.68;;
49460;SDS011;35355;49.198;-0.368;2024-01-11T10:46:43;25.13;;;11.93;;
49460;SDS011;35355;49.198;-0.368;2024-01-11T10:49:10;23.05;;;10.77;;
49460;SDS011;35355;49.198;-0.368;2024-01-11T10:51:40;23.60;;;11.18;;
49460;SDS011;35355;49.198;-0.368;2024-01-11T10:54:08;20.55;;;11.52;;
49460;SDS011;35355;49.198;-0.368;2024-01-11T10:56:34;24.88;;;12.48;;
49460;SDS011;35355;49.198;-0.368;2024-01-11T10:59:01;20.25;;;10.60;;
49460;SDS011;35355;49.198;-0.368;2024-01-11T11:01:28;20.92;;;10.05;;
49460;SDS011;35355;49.198;-0.368;2024-01-11T11:03:55;21.63;;;10.35;;
49460;SDS011;35355;49.198;-0.368;2024-01-11T11:06:22;17.85;;;9.65;;
49460;SDS011;35355;49.198;-0.368;2024-01-11T11:08:47;16.70;;;10.07;;
49460;SDS011;35355;49.198;-0.368;2024-01-11T11:11:16;21.55;;;10.93;;
49460;SDS011;35355;49.198;-0.368;2024-01-11T11:13:43;19.33;;;9.88;;
49460;SDS011;35355;49.198;-0.368;2024-01-11T11:16:14;24.60;;;11.35;;
49460;SDS011;35355;49.198;-0.368;2024-01-11T11:18:40;23.30;;;11.20;;
49460;SDS011;35355;49.198;-0.368;2024-01-11T11:21:08;25.17;;;12.15;;
49460;SDS011;35355;49.198;-0.368;2024-01-11T11:23:35;23.15;;;10.80;;
49460;SDS011;35355;49.198;-0.368;2024-01-11T11:26:01;20.63;;;10.40;;
49460;SDS011;35355;49.198;-0.368;2024-01-11T11:28:26;21.20;;;11.13;;
49460;SDS011;35355;49.198;-0.368;2024-01-11T11:30:52;24.63;;;11.02;;
49460;SDS011;35355;49.198;-0.368;2024-01-11T11:33:23;22.92;;;11.20;;
49460;SDS011;35355;49.198;-0.368;2024-01-11T11:35:53;23.00;;;11.43;;
49460;SDS011;35355;49.198;-0.368;2024-01-11T11:38:20;21.92;;;11.77;;
49460;SDS011;35355;49.198;-0.368;2024-01-11T11:40:50;24.77;;;12.85;;
49460;SDS011;35355;49.198;-0.368;2024-01-11T11:43:16;26.77;;;11.77;;
49460;SDS011;35355;49.198;-0.368;2024-01-11T11:45:43;24.73;;;12.57;;
49460;SDS011;35355;49.198;-0.368;2024-01-11T11:51:09;25.67;;;13.15;;
49460;SDS011;35355;49.198;-0.368;2024-01-11T11:53:37;26.95;;;13.93;;
49460;SDS011;35355;49.198;-0.368;2024-01-11T11:56:04;25.70;;;13.32;;
49460;SDS011;35355;49.198;-0.368;2024-01-11T11:58:37;32.55;;;12.85;;
49460;SDS011;35355;49.198;-0.368;2024-01-11T12:01:04;24.92;;;13.05;;
49460;SDS011;35355;49.198;-0.368;2024-01-11T12:03:30;25.20;;;11.75;;
49460;SDS011;35355;49.198;-0.368;2024-01-11T12:05:57;24.17;;;12.40;;
49460;SDS011;35355;49.198;-0.368;2024-01-11T12:08:23;24.65;;;12.80;;
49460;SDS011;35355;49.198;-0.368;2024-01-11T12:10:49;20.85;;;11.50;;
49460;SDS011;35355;49.198;-0.368;2024-01-11T12:13:16;22.35;;;12.15;;
49460;SDS011;35355;49.198;-0.368;2024-01-11T12:15:42;25.50;;;12.27;;
49460;SDS011;35355;49.198;-0.368;2024-01-11T12:18:08;26.58;;;12.68;;
49460;SDS011;35355;49.198;-0.368;2024-01-11T12:20:34;25.55;;;12.05;;
49460;SDS011;35355;49.198;-0.368;2024-01-11T12:23:00;31.80;;;13.55;;
49460;SDS011;35355;49.198;-0.368;2024-01-11T12:25:27;25.50;;;12.65;;
49460;SDS011;35355;49.198;-0.368;2024-01-11T12:27:53;22.92;;;10.68;;
49460;SDS011;35355;49.198;-0.368;2024-01-11T12:30:18;25.83;;;12.52;;
49460;SDS011;35355;49.198;-0.368;2024-01-11T12:32:47;24.27;;;11.80;;
49460;SDS011;35355;49.198;-0.368;2024-01-11T12:35:15;23.80;;;11.40;;
49460;SDS011;35355;49.198;-0.368;2024-01-11T12:37:54;20.33;;;11.35;;
49460;SDS011;35355;49.198;-0.368;2024-01-11T12:40:23;29.00;;;11.95;;
49460;SDS011;35355;49.198;-0.368;2024-01-11T12:42:56;28.73;;;12.07;;
49460;SDS011;35355;49.198;-0.368;2024-01-11T12:45:25;22.33;;;11.02;;
49460;SDS011;35355;49.198;-0.368;2024-01-11T12:47:54;22.10;;;12.10;;
49460;SDS011;35355;49.198;-0.368;2024-01-11T12:50:22;24.25;;;11.25;;
49460;SDS011;35355;49.198;-0.368;2024-01-11T12:53:03;23.92;;;12.75;;
49460;SDS011;35355;49.198;-0.368;2024-01-11T12:55:48;24.35;;;12.75;;
49460;SDS011;35355;49.198;-0.368;2024-01-11T12:58:19;24.52;;;12.93;;
49460;SDS011;35355;49.198;-0.368;2024-01-11T13:00:53;24.88;;;10.80;;
49460;SDS011;35355;49.198;-0.368;2024-01-11T13:03:19;24.75;;;11.65;;
49460;SDS011;35355;49.198;-0.368;2024-01-11T13:05:46;24.25;;;11.95;;
49460;SDS011;35355;49.198;-0.368;2024-01-11T13:08:11;28.80;;;11.90;;
49460;SDS011;35355;49.198;-0.368;2024-01-11T13:10:37;27.02;;;12.45;;
49460;SDS011;35355;49.198;-0.368;2024-01-11T13:13:03;23.10;;;12.18;;
49460;SDS011;35355;49.198;-0.368;2024-01-11T13:15:30;28.13;;;12.95;;
49460;SDS011;35355;49.198;-0.368;2024-01-11T13:17:59;28.70;;;12.93;;
49460;SDS011;35355;49.198;-0.368;2024-01-11T13:20:26;24.77;;;12.57;;
49460;SDS011;35355;49.198;-0.368;2024-01-11T13:23:11;19.13;;;9.80;;
49460;SDS011;35355;49.198;-0.368;2024-01-11T13:25:43;27.05;;;11.77;;
49460;SDS011;35355;49.198;-0.368;2024-01-11T13:28:13;28.85;;;12.18;;
49460;SDS011;35355;49.198;-0.368;2024-01-11T13:30:39;22.55;;;10.73;;
49460;SDS011;35355;49.198;-0.368;2024-01-11T13:33:06;23.63;;;10.18;;
49460;SDS011;35355;49.198;-0.368;2024-01-11T13:35:36;24.25;;;11.98;;
49460;SDS011;35355;49.198;-0.368;2024-01-11T13:38:02;20.80;;;10.32;;
49460;SDS011;35355;49.198;-0.368;2024-01-11T13:40:29;28.33;;;15.13;;
49460;SDS011;35355;49.198;-0.368;2024-01-11T13:42:55;22.83;;;11.30;;
49460;SDS011;35355;49.198;-0.368;2024-01-11T13:45:21;28.92;;;11.10;;
49460;SDS011;35355;49.198;-0.368;2024-01-11T13:47:47;25.45;;;10.93;;
49460;SDS011;35355;49.198;-0.368;2024-01-11T13:50:12;22.67;;;11.27;;
49460;SDS011;35355;49.198;-0.368;2024-01-11T13:52:38;22.30;;;10.05;;
49460;SDS011;35355;49.198;-0.368;2024-01-11T13:55:03;26.23;;;11.95;;
49460;SDS011;35355;49.198;-0.368;2024-01-11T13:57:29;17.42;;;9.30;;
49460;SDS011;35355;49.198;-0.368;2024-01-11T13:59:54;23.80;;;10.32;;
49460;SDS011;35355;49.198;-0.368;2024-01-11T14:02:23;19.85;;;10.00;;
49460;SDS011;35355;49.198;-0.368;2024-01-11T14:04:51;21.67;;;10.13;;
49460;SDS011;35355;49.198;-0.368;2024-01-11T14:07:22;19.40;;;9.82;;
49460;SDS011;35355;49.198;-0.368;2024-01-11T14:09:49;21.95;;;10.77;;
49460;SDS011;35355;49.198;-0.368;2024-01-11T14:12:14;20.75;;;10.07;;
49460;SDS011;35355;49.198;-0.368;2024-01-11T14:14:41;21.27;;;10.43;;
49460;SDS011;35355;49.198;-0.368;2024-01-11T14:17:10;20.98;;;10.25;;